createdAt,value
2018-09-03T11:19:57.754Z,4536.00
2018-09-03T11:22:46.906Z,5760.00
2018-09-03T11:23:47.845Z,5836.00
2018-09-03T11:30:33.506Z,5988.00
2018-09-03T11:31:34.374Z,5908.00
2018-09-03T11:43:56.375Z,4040.00
2018-09-03T11:44:57.290Z,4124.00
2018-09-03T11:46:23.485Z,4260.00
2018-09-03T11:47:24.464Z,4340.00
2018-09-03T11:48:24.448Z,4380.00
2018-09-03T11:49:24.473Z,4376.00
2018-09-03T11:50:24.436Z,4344.00
2018-09-03T11:51:24.423Z,4292.00
2018-09-03T11:52:24.414Z,4252.00
2018-09-03T11:53:24.409Z,4272.00
2018-09-03T11:54:24.453Z,4332.00
2018-09-03T11:55:24.372Z,4364.00
2018-09-03T11:56:24.370Z,4368.00
2018-09-03T11:57:24.387Z,4348.00
2018-09-03T11:58:24.366Z,4324.00
2018-09-03T11:59:24.353Z,4304.00
2018-09-03T12:00:24.324Z,4284.00
2018-09-03T12:01:24.306Z,4276.00
2018-09-03T12:02:24.299Z,4296.00
2018-09-03T12:03:24.299Z,4352.00
2018-09-03T12:04:24.500Z,4440.00
2018-09-03T12:05:24.264Z,4580.00
2018-09-03T12:06:24.265Z,4748.00
2018-09-03T12:07:24.258Z,4936.00
2018-09-03T12:08:24.239Z,5132.00
2018-09-03T12:09:24.252Z,5320.00
2018-09-03T12:10:24.235Z,5492.00
2018-09-03T12:11:24.211Z,5636.00
2018-09-03T12:12:24.192Z,5784.00
2018-09-03T12:13:24.180Z,5940.00
2018-09-03T12:14:24.190Z,6088.00
2018-09-03T12:15:24.158Z,6252.00
2018-09-03T12:16:24.162Z,6412.00
2018-09-03T12:17:24.417Z,6552.00
2018-09-03T12:18:24.126Z,6680.00
2018-09-03T12:19:24.153Z,6816.00
2018-09-03T12:20:24.106Z,7000.00
2018-09-03T12:21:24.209Z,7184.00
2018-09-03T12:22:24.098Z,7344.00
2018-09-03T12:23:24.070Z,7432.00
2018-09-03T12:24:24.090Z,7480.00
2018-09-03T12:25:24.076Z,7540.00
2018-09-03T12:26:24.044Z,7600.00
2018-09-03T12:27:24.033Z,7612.00
2018-09-03T12:28:24.015Z,7624.00
2018-09-03T12:29:24.013Z,7548.00
2018-09-03T12:30:24.005Z,7376.00
2018-09-03T12:31:24.077Z,7236.00
2018-09-03T12:32:23.993Z,7036.00
2018-09-03T12:33:23.979Z,6836.00
2018-09-03T12:34:23.956Z,6732.00
2018-09-03T12:35:23.996Z,6756.00
2018-09-03T12:36:23.928Z,6856.00
2018-09-03T12:37:23.933Z,6992.00
2018-09-03T12:38:23.919Z,7088.00
2018-09-03T12:39:23.921Z,7064.00
2018-09-03T12:40:23.908Z,6880.00
2018-09-03T12:41:23.875Z,6516.00
2018-09-03T12:42:23.868Z,6216.00
2018-09-03T12:43:23.858Z,6112.00
2018-09-03T12:44:23.850Z,6020.00
2018-09-03T12:45:23.854Z,5992.00
2018-09-03T12:46:23.838Z,6120.00
2018-09-03T12:47:23.813Z,6420.00
2018-09-03T12:48:23.805Z,6808.00
2018-09-03T12:49:23.800Z,7192.00
2018-09-03T12:50:23.813Z,7524.00
2018-09-03T12:51:23.915Z,7760.00
2018-09-03T12:52:23.766Z,7832.00
2018-09-03T12:53:23.751Z,7796.00
2018-09-03T12:54:23.750Z,7756.00
2018-09-03T12:55:23.750Z,7676.00
2018-09-03T12:56:23.726Z,7512.00
2018-09-03T12:57:23.714Z,7380.00
2018-09-03T12:58:23.691Z,7368.00
2018-09-03T12:59:23.699Z,7436.00
2018-09-03T13:00:23.710Z,7456.00
2018-09-03T13:01:23.666Z,7428.00
2018-09-03T13:02:23.667Z,7388.00
2018-09-03T13:03:23.664Z,7344.00
2018-09-03T13:04:23.653Z,7332.00
2018-09-03T13:05:23.651Z,7344.00
2018-09-03T13:06:25.419Z,7372.00
2018-09-03T13:07:23.617Z,7404.00
2018-09-03T13:08:23.679Z,7460.00
2018-09-03T13:09:23.588Z,7548.00
2018-09-03T13:10:23.581Z,7672.00
2018-09-03T13:11:23.557Z,7800.00
2018-09-03T13:12:23.571Z,7912.00
2018-09-03T13:13:23.534Z,8000.00
2018-09-03T13:14:23.537Z,8088.00
2018-09-03T13:15:23.550Z,8164.00
2018-09-03T13:16:23.510Z,8256.00
2018-09-03T13:17:23.493Z,8324.00
2018-09-03T13:18:23.473Z,8412.00
2018-09-03T13:19:23.471Z,8460.00
2018-09-03T13:20:23.490Z,8504.00
2018-09-03T13:21:23.445Z,8500.00
2018-09-03T13:22:23.798Z,8480.00
2018-09-03T13:23:23.480Z,8472.00
2018-09-03T13:24:23.427Z,8436.00
2018-09-03T13:25:24.288Z,8412.00
2018-09-03T13:26:23.458Z,8304.00
2018-09-03T13:27:24.257Z,8288.00
2018-09-03T13:28:23.377Z,8292.00
2018-09-03T13:29:23.351Z,8336.00
2018-09-03T13:30:23.648Z,8308.00
2018-09-03T13:31:23.363Z,8372.00
2018-09-03T13:32:23.319Z,8596.00
2018-09-03T13:33:23.313Z,8588.00
2018-09-03T13:34:23.307Z,8584.00
2018-09-03T13:35:23.282Z,8548.00
2018-09-03T13:36:23.315Z,8556.00
2018-09-03T13:37:23.294Z,8584.00
2018-09-03T13:38:23.263Z,8536.00
2018-09-03T13:39:23.259Z,8436.00
2018-09-03T13:40:23.240Z,8344.00
2018-09-03T13:41:23.270Z,8208.00
2018-09-03T13:42:23.287Z,8024.00
2018-09-03T13:43:23.207Z,7756.00
2018-09-03T13:44:23.188Z,7472.00
2018-09-03T13:45:23.183Z,6964.00
2018-09-03T13:47:32.415Z,6188.00
2018-09-03T13:48:33.380Z,5936.00
2018-09-03T13:49:33.380Z,5700.00
2018-09-03T13:50:33.358Z,5512.00
2018-09-03T13:51:33.347Z,5360.00
2018-09-03T13:52:33.364Z,5228.00
2018-09-03T13:53:33.335Z,5104.00
2018-09-03T13:54:33.309Z,4996.00
2018-09-03T13:55:33.306Z,4920.00
2018-09-03T13:56:33.363Z,4868.00
2018-09-03T13:57:33.321Z,4816.00
2018-09-03T13:58:33.286Z,4780.00
2018-09-03T13:59:33.276Z,4736.00
2018-09-03T14:00:33.331Z,4708.00
2018-09-03T14:01:33.237Z,4676.00
2018-09-03T14:02:33.261Z,4672.00
2018-09-03T14:03:33.228Z,4676.00
2018-09-03T14:04:33.210Z,4688.00
2018-09-03T14:05:33.214Z,4728.00
2018-09-03T14:06:33.460Z,4800.00
2018-09-03T14:07:33.243Z,4896.00
2018-09-03T14:08:33.166Z,4988.00
2018-09-03T14:09:33.160Z,5064.00
2018-09-03T14:10:33.159Z,5136.00
2018-09-03T14:11:33.158Z,5200.00
2018-09-03T14:12:33.161Z,5236.00
2018-09-03T14:13:33.115Z,5244.00
2018-09-03T14:14:33.113Z,5228.00
2018-09-03T14:15:33.155Z,5228.00
2018-09-03T14:16:33.078Z,5224.00
2018-09-03T14:17:33.099Z,5236.00
2018-09-03T14:18:33.070Z,5240.00
2018-09-03T14:19:33.065Z,5228.00
2018-09-03T14:20:33.071Z,5224.00
2018-09-03T14:21:33.035Z,5212.00
2018-09-03T14:22:33.018Z,5204.00
2018-09-03T14:23:33.013Z,5204.00
2018-09-03T14:24:33.000Z,5196.00
2018-09-03T14:25:32.985Z,5208.00
2018-09-03T14:26:32.979Z,5232.00
2018-09-03T14:27:32.959Z,5260.00
2018-09-03T14:28:33.095Z,5276.00
2018-09-03T14:29:32.949Z,5276.00
2018-09-03T14:30:32.971Z,5272.00
2018-09-03T14:31:32.936Z,5252.00
2018-09-03T14:32:32.908Z,5240.00
2018-09-03T14:33:32.920Z,5240.00
2018-09-03T14:34:32.913Z,5256.00
2018-09-03T14:35:32.878Z,5288.00
2018-09-03T14:36:32.871Z,5320.00
2018-09-03T14:37:32.864Z,5336.00
2018-09-03T14:38:32.866Z,5348.00
2018-09-03T14:39:33.148Z,5340.00
2018-09-03T14:40:32.838Z,5336.00
2018-09-03T14:41:32.825Z,5316.00
2018-09-03T14:42:32.833Z,5308.00
2018-09-03T14:43:32.829Z,5292.00
2018-09-03T14:44:32.778Z,5288.00
2018-09-03T14:45:32.769Z,5296.00
2018-09-03T14:46:32.769Z,5316.00
2018-09-03T14:47:32.758Z,5344.00
2018-09-03T14:48:32.787Z,5380.00
2018-09-03T14:49:32.856Z,5428.00
2018-09-03T14:50:32.727Z,5504.00
2018-09-03T14:51:32.713Z,5572.00
2018-09-03T14:52:32.693Z,5632.00
2018-09-03T14:53:32.701Z,5672.00
2018-09-03T14:54:32.673Z,5720.00
2018-09-03T14:55:32.662Z,5752.00
2018-09-03T14:56:32.694Z,5748.00
2018-09-03T14:57:32.659Z,5716.00
2018-09-03T14:58:32.648Z,5676.00
2018-09-03T14:59:32.639Z,5628.00
2018-09-03T15:00:32.620Z,5564.00
2018-09-03T15:01:32.596Z,5488.00
2018-09-03T15:02:32.589Z,5384.00
2018-09-03T15:03:32.654Z,5268.00
2018-09-03T15:04:32.593Z,5152.00
2018-09-03T15:05:32.565Z,5040.00
2018-09-03T15:06:32.568Z,4944.00
2018-09-03T15:07:32.551Z,4852.00
2018-09-03T15:08:32.607Z,4792.00
2018-09-03T15:09:32.517Z,4752.00
2018-09-03T15:10:32.515Z,4712.00
2018-09-03T15:11:32.483Z,4672.00
2018-09-03T15:12:32.526Z,4644.00
2018-09-03T15:13:32.489Z,4592.00
2018-09-03T15:14:32.474Z,4544.00
2018-09-03T15:15:32.453Z,4500.00
2018-09-03T15:16:32.505Z,4408.00
2018-09-03T15:17:32.476Z,4312.00
2018-09-03T15:18:32.529Z,4220.00
2018-09-03T15:19:32.421Z,4144.00
2018-09-03T15:20:32.456Z,4068.00
2018-09-03T15:21:32.375Z,4012.00
2018-09-03T15:22:32.365Z,3988.00
2018-09-03T15:23:32.389Z,3980.00
2018-09-03T15:24:32.351Z,3972.00
2018-09-03T15:25:32.358Z,3960.00
2018-09-03T15:26:32.326Z,3948.00
2018-09-03T15:27:32.317Z,3940.00
2018-09-03T15:28:32.338Z,3936.00
2018-09-03T15:29:32.293Z,3936.00
2018-09-03T15:30:32.283Z,3912.00
2018-09-03T15:31:32.279Z,3860.00
2018-09-03T15:32:32.267Z,3788.00
2018-09-03T15:33:32.262Z,3732.00
2018-09-03T15:34:32.268Z,3692.00
2018-09-03T15:35:32.242Z,3656.00
2018-09-03T15:36:32.263Z,3632.00
2018-09-03T15:37:32.228Z,3612.00
2018-09-03T15:38:32.201Z,3592.00
2018-09-03T15:39:32.215Z,3572.00
2018-09-03T15:40:32.188Z,3552.00
2018-09-03T15:41:32.173Z,3556.00
2018-09-03T15:42:32.157Z,3596.00
2018-09-03T15:43:32.152Z,3664.00
2018-09-03T15:44:32.154Z,3732.00
2018-09-03T15:45:32.138Z,3764.00
2018-09-03T15:46:32.116Z,3784.00
2018-09-03T15:48:41.324Z,3856.00
2018-09-03T15:49:42.339Z,3948.00
2018-09-03T15:50:42.266Z,4044.00
2018-09-03T15:51:42.264Z,4148.00
2018-09-03T15:52:42.244Z,4248.00
2018-09-03T15:53:42.230Z,4344.00
2018-09-03T15:54:42.251Z,4412.00
2018-09-03T15:55:42.210Z,4428.00
2018-09-03T15:56:42.201Z,4440.00
2018-09-03T15:57:42.205Z,4480.00
2018-09-03T15:58:42.181Z,4548.00
2018-09-03T15:59:42.203Z,4664.00
2018-09-03T16:00:42.218Z,4736.00
2018-09-03T16:01:42.155Z,4700.00
2018-09-03T16:02:42.144Z,4620.00
2018-09-03T16:03:43.047Z,4576.00
2018-09-03T16:04:42.143Z,4560.00
2018-09-03T16:05:42.103Z,4576.00
2018-09-03T16:06:42.114Z,4600.00
2018-09-03T16:07:42.099Z,4584.00
2018-09-03T16:08:42.084Z,4540.00
2018-09-03T16:09:42.130Z,4492.00
2018-09-03T16:10:42.057Z,4420.00
2018-09-03T16:11:42.043Z,4344.00
2018-09-03T16:12:42.033Z,4244.00
2018-09-03T16:13:42.028Z,4156.00
2018-09-03T16:14:42.009Z,4080.00
2018-09-03T16:15:42.001Z,4016.00
2018-09-03T16:16:42.020Z,3888.00
2018-09-03T16:17:41.972Z,3868.00
2018-09-03T16:18:41.980Z,3784.00
2018-09-03T16:19:41.966Z,3740.00
2018-09-03T16:20:41.982Z,3712.00
2018-09-03T16:21:41.964Z,3672.00
2018-09-03T16:22:41.939Z,3612.00
2018-09-03T16:23:41.915Z,3536.00
2018-09-03T16:24:41.910Z,3460.00
2018-09-03T16:25:41.913Z,3392.00
2018-09-03T16:26:41.887Z,3348.00
2018-09-03T16:27:41.888Z,3328.00
2018-09-03T16:28:41.900Z,3308.00
2018-09-03T16:29:41.857Z,3228.00
2018-09-03T16:30:41.855Z,3092.00
2018-09-03T16:31:41.838Z,2968.00
2018-09-03T16:32:41.830Z,2868.00
2018-09-03T16:33:41.813Z,2796.00
2018-09-03T16:34:41.799Z,2728.00
2018-09-03T16:35:41.819Z,2684.00
2018-09-03T16:36:41.783Z,2676.00
2018-09-03T16:37:41.773Z,2628.00
2018-09-03T16:38:41.811Z,2556.00
2018-09-03T16:39:41.744Z,2540.00
2018-09-03T16:40:41.762Z,2508.00
2018-09-03T16:41:41.731Z,2476.00
2018-09-03T16:42:41.716Z,2440.00
2018-09-03T16:43:41.700Z,2384.00
2018-09-03T16:44:41.680Z,2324.00
2018-09-03T16:45:41.704Z,2280.00
2018-09-03T16:46:41.669Z,2240.00
2018-09-03T16:47:41.670Z,2188.00
2018-09-03T16:48:41.646Z,2124.00
2018-09-03T16:49:41.644Z,2060.00
2018-09-03T16:50:41.649Z,2004.00
2018-09-03T16:51:41.623Z,1960.00
2018-09-03T16:52:41.603Z,1924.00
2018-09-03T16:53:41.590Z,1884.00
2018-09-03T16:54:41.577Z,1856.00
2018-09-03T16:55:41.597Z,1832.00
2018-09-03T16:56:41.552Z,1808.00
2018-09-03T16:57:41.548Z,1788.00
2018-09-03T16:58:41.528Z,1772.00
2018-09-03T16:59:41.535Z,1752.00
2018-09-03T17:00:41.526Z,1720.00
2018-09-03T17:01:41.524Z,1684.00
2018-09-03T17:02:41.499Z,1648.00
2018-09-03T17:03:41.489Z,1604.00
2018-09-03T17:04:41.467Z,1564.00
2018-09-03T17:05:41.483Z,1524.00
2018-09-03T17:06:41.453Z,1476.00
2018-09-03T17:07:41.633Z,1424.00
2018-09-03T17:08:41.427Z,1376.00
2018-09-03T17:09:41.418Z,1328.00
2018-09-03T17:10:41.434Z,1280.00
2018-09-03T17:11:41.672Z,1232.00
2018-09-03T17:12:41.390Z,1176.00
2018-09-03T17:13:41.384Z,1124.00
2018-09-03T17:14:41.356Z,1064.00
2018-09-03T17:15:41.365Z,1012.00
2018-09-03T17:16:41.337Z,964.00
2018-09-03T17:17:42.265Z,920.00
2018-09-03T17:18:41.318Z,880.00
2018-09-03T17:19:41.302Z,836.00
2018-09-03T17:20:41.622Z,796.00
2018-09-03T17:21:41.283Z,756.00
2018-09-03T17:22:41.281Z,724.00
2018-09-03T17:23:41.256Z,688.00
2018-09-03T17:24:41.260Z,664.00
2018-09-03T17:25:41.273Z,644.00
2018-09-03T17:26:41.239Z,624.00
2018-09-03T17:27:41.224Z,612.00
2018-09-03T17:28:41.227Z,600.00
2018-09-03T17:29:41.209Z,584.00
2018-09-03T17:30:41.207Z,572.00
2018-09-03T17:31:41.182Z,560.00
2018-09-03T17:32:41.327Z,552.00
2018-09-03T17:33:41.156Z,540.00
2018-09-03T17:34:41.142Z,528.00
2018-09-03T17:35:41.159Z,528.00
2018-09-03T17:36:41.144Z,528.00
2018-09-03T17:37:41.115Z,532.00
2018-09-03T17:38:41.122Z,532.00
2018-09-03T17:39:41.092Z,532.00
2018-09-03T17:40:41.101Z,532.00
2018-09-03T17:41:41.102Z,528.00
2018-09-03T17:42:41.067Z,528.00
2018-09-03T17:43:41.054Z,520.00
2018-09-03T17:44:41.033Z,512.00
2018-09-03T17:45:41.055Z,504.00
2018-09-03T17:46:41.024Z,492.00
2018-09-03T17:47:41.012Z,476.00
2018-09-03T17:49:50.359Z,428.00
2018-09-03T17:50:51.205Z,408.00
2018-09-03T17:51:51.149Z,380.00
2018-09-03T17:52:51.154Z,356.00
2018-09-03T17:53:51.134Z,328.00
2018-09-03T17:54:51.127Z,312.00
2018-09-03T17:55:51.133Z,288.00
2018-09-03T17:56:51.095Z,272.00
2018-09-03T17:57:51.099Z,256.00
2018-09-03T17:58:51.085Z,240.00
2018-09-03T17:59:51.068Z,220.00
2018-09-03T18:00:51.065Z,200.00
2018-09-03T18:01:51.057Z,184.00
2018-09-03T18:02:51.026Z,164.00
2018-09-03T18:03:51.023Z,152.00
2018-09-03T18:04:51.018Z,136.00
2018-09-03T18:05:51.002Z,120.00
2018-09-03T18:06:51.007Z,108.00
2018-09-03T18:07:50.998Z,96.00
2018-09-03T18:08:50.972Z,84.00
2018-09-03T18:09:50.966Z,76.00
2018-09-03T18:10:50.950Z,68.00
2018-09-03T18:11:50.984Z,64.00
2018-09-03T18:12:50.923Z,60.00
2018-09-03T18:13:50.921Z,52.00
2018-09-03T18:14:50.905Z,52.00
2018-09-03T18:15:50.896Z,48.00
2018-09-03T18:16:50.904Z,44.00
2018-09-03T18:17:50.878Z,36.00
2018-09-03T18:18:50.853Z,32.00
2018-09-03T18:19:50.854Z,28.00
2018-09-03T18:20:50.828Z,24.00
2018-09-03T18:21:50.964Z,20.00
2018-09-03T18:22:50.815Z,20.00
2018-09-03T18:23:50.795Z,16.00
2018-09-03T18:24:50.785Z,12.00
2018-09-03T18:25:50.772Z,12.00
2018-09-03T18:26:50.802Z,8.00
2018-09-03T18:27:50.754Z,8.00
2018-09-03T18:28:50.752Z,8.00
2018-09-03T18:29:50.742Z,4.00
2018-09-03T18:30:50.722Z,4.00
2018-09-03T18:31:50.732Z,4.00
2018-09-03T18:32:50.742Z,4.00
2018-09-03T18:33:50.707Z,0.00
2018-09-03T18:34:50.683Z,4.00
2018-09-03T18:35:50.691Z,4.00
2018-09-03T18:36:50.680Z,0.00
2018-09-03T18:37:50.661Z,0.00
2018-09-03T18:38:50.644Z,0.00
2018-09-03T18:39:50.626Z,0.00
2018-09-03T18:40:50.621Z,0.00
2018-09-03T18:41:50.674Z,0.00
2018-09-03T18:42:50.626Z,0.00
2018-09-03T18:43:50.595Z,0.00
2018-09-03T18:44:50.575Z,0.00
2018-09-03T18:45:50.580Z,0.00
2018-09-03T18:46:50.584Z,0.00
2018-09-03T18:47:50.542Z,0.00
2018-09-03T18:48:50.529Z,0.00
2018-09-03T18:49:50.521Z,0.00
2018-09-03T18:50:50.503Z,0.00
2018-09-03T18:51:50.497Z,0.00
2018-09-03T18:52:50.503Z,0.00
2018-09-03T18:53:50.474Z,0.00
2018-09-03T18:54:50.467Z,0.00
2018-09-03T18:55:50.453Z,0.00
2018-09-03T18:56:50.465Z,0.00
2018-09-03T18:57:50.441Z,0.00
2018-09-03T18:58:50.418Z,0.00
2018-09-03T18:59:50.450Z,0.00
2018-09-03T19:00:50.393Z,0.00
2018-09-03T19:01:50.416Z,0.00
2018-09-03T19:02:50.380Z,0.00
2018-09-03T19:03:50.381Z,0.00
2018-09-03T19:04:50.357Z,0.00
2018-09-03T19:05:50.344Z,0.00
2018-09-03T19:06:50.368Z,0.00
2018-09-03T19:07:50.317Z,0.00
2018-09-03T19:08:50.312Z,0.00
2018-09-03T19:09:50.410Z,0.00
2018-09-03T19:10:50.287Z,0.00
2018-09-03T19:11:50.292Z,0.00
2018-09-03T19:12:50.273Z,0.00
2018-09-03T19:13:50.263Z,0.00
2018-09-03T19:14:50.242Z,0.00
2018-09-03T19:15:50.231Z,0.00
2018-09-03T19:16:50.237Z,0.00
2018-09-03T19:17:50.213Z,0.00
2018-09-03T19:18:50.216Z,0.00
2018-09-03T19:19:50.246Z,0.00
2018-09-03T19:20:50.184Z,0.00
2018-09-03T19:21:50.189Z,0.00
2018-09-03T19:22:50.156Z,0.00
2018-09-03T19:23:50.167Z,0.00
2018-09-03T19:24:50.140Z,0.00
2018-09-03T19:25:50.118Z,0.00
2018-09-03T19:26:50.124Z,0.00
2018-09-03T19:27:50.108Z,0.00
2018-09-03T19:28:50.090Z,0.00
2018-09-03T19:29:50.096Z,0.00
2018-09-03T19:30:50.090Z,0.00
2018-09-03T19:31:50.068Z,0.00
2018-09-03T19:32:50.063Z,0.00
2018-09-03T19:33:50.040Z,0.00
2018-09-03T19:34:50.026Z,0.00
2018-09-03T19:35:50.013Z,0.00
2018-09-03T19:36:50.001Z,0.00
2018-09-03T19:37:49.995Z,0.00
2018-09-03T19:38:49.978Z,0.00
2018-09-03T19:39:49.959Z,0.00
2018-09-03T19:40:49.959Z,0.00
2018-09-03T19:41:49.950Z,0.00
2018-09-03T19:42:49.968Z,0.00
2018-09-03T19:43:49.914Z,0.00
2018-09-03T19:44:49.918Z,0.00
2018-09-03T19:45:49.962Z,0.00
2018-09-03T19:46:49.885Z,0.00
2018-09-03T19:47:49.911Z,0.00
2018-09-03T19:48:49.879Z,0.00
2018-09-03T19:50:59.056Z,0.00
2018-09-03T19:52:00.097Z,0.00
2018-09-03T19:53:00.051Z,0.00
2018-09-03T19:54:00.016Z,0.00
2018-09-03T19:55:00.017Z,0.00
2018-09-03T19:56:00.012Z,0.00
2018-09-03T19:57:00.009Z,0.00
2018-09-03T19:57:59.996Z,0.00
2018-09-03T19:58:59.994Z,0.00
2018-09-03T19:59:59.964Z,0.00
2018-09-03T20:00:59.966Z,0.00
2018-09-03T20:01:59.949Z,0.00
2018-09-03T20:02:59.936Z,0.00
2018-09-03T20:03:59.920Z,0.00
2018-09-03T20:04:59.906Z,0.00
2018-09-03T20:05:59.938Z,0.00
2018-09-03T20:06:59.877Z,0.00
2018-09-03T20:07:59.882Z,0.00
2018-09-03T20:08:59.860Z,0.00
2018-09-03T20:09:59.839Z,0.00
2018-09-03T20:10:59.845Z,0.00
2018-09-03T20:11:59.820Z,0.00
2018-09-03T20:12:59.833Z,0.00
2018-09-03T20:13:59.809Z,0.00
2018-09-03T20:14:59.789Z,0.00
2018-09-03T20:15:59.784Z,0.00
2018-09-03T20:16:59.851Z,0.00
2018-09-03T20:17:59.801Z,0.00
2018-09-03T20:18:59.749Z,0.00
2018-09-03T20:19:59.793Z,0.00
2018-09-03T20:20:59.722Z,0.00
2018-09-03T20:21:59.733Z,0.00
2018-09-03T20:22:59.764Z,0.00
2018-09-03T20:23:59.691Z,0.00
2018-09-03T20:24:59.676Z,0.00
2018-09-03T20:25:59.674Z,0.00
2018-09-03T20:26:59.662Z,0.00
2018-09-03T20:27:59.663Z,0.00
2018-09-03T20:28:59.636Z,0.00
2018-09-03T20:29:59.626Z,0.00
2018-09-03T20:30:59.700Z,0.00
2018-09-03T20:31:59.609Z,0.00
2018-09-03T20:32:59.614Z,0.00
2018-09-03T20:33:59.609Z,0.00
2018-09-03T20:34:59.562Z,0.00
2018-09-03T20:35:59.566Z,0.00
2018-09-03T20:36:59.546Z,0.00
2018-09-03T20:37:59.554Z,0.00
2018-09-03T20:38:59.535Z,0.00
2018-09-03T20:39:59.522Z,0.00
2018-09-03T20:40:59.507Z,0.00
2018-09-03T20:41:59.705Z,0.00
2018-09-03T20:42:59.598Z,0.00
2018-09-03T20:43:59.820Z,0.00
2018-09-03T20:44:59.457Z,0.00
2018-09-03T20:45:59.455Z,0.00
2018-09-03T20:46:59.461Z,0.00
2018-09-03T20:47:59.459Z,0.00
2018-09-03T20:48:59.417Z,0.00
2018-09-03T20:49:59.411Z,0.00
2018-09-03T20:50:59.406Z,0.00
2018-09-03T20:51:59.405Z,0.00
2018-09-03T20:52:59.402Z,0.00
2018-09-03T20:53:59.361Z,0.00
2018-09-03T20:54:59.350Z,0.00
2018-09-03T20:55:59.345Z,0.00
2018-09-03T20:56:59.333Z,0.00
2018-09-03T20:57:59.338Z,0.00
2018-09-03T20:58:59.319Z,0.00
2018-09-03T20:59:59.309Z,0.00
2018-09-03T21:00:59.295Z,0.00
2018-09-03T21:01:59.280Z,0.00
2018-09-03T21:02:59.298Z,0.00
2018-09-03T21:03:59.277Z,0.00
2018-09-03T21:04:59.245Z,0.00
2018-09-03T21:05:59.227Z,0.00
2018-09-03T21:06:59.246Z,0.00
2018-09-03T21:07:59.254Z,0.00
2018-09-03T21:08:59.209Z,0.00
2018-09-03T21:09:59.190Z,0.00
2018-09-03T21:10:59.179Z,0.00
2018-09-03T21:11:59.171Z,0.00
2018-09-03T21:12:59.186Z,0.00
2018-09-03T21:13:59.194Z,0.00
2018-09-03T21:14:59.137Z,0.00
2018-09-03T21:15:59.125Z,0.00
2018-09-03T21:16:59.118Z,0.00
2018-09-03T21:17:59.127Z,0.00
2018-09-03T21:18:59.086Z,0.00
2018-09-03T21:19:59.088Z,0.00
2018-09-03T21:20:59.077Z,0.00
2018-09-03T21:21:59.097Z,0.00
2018-09-03T21:22:59.067Z,0.00
2018-09-03T21:23:59.124Z,0.00
2018-09-03T21:24:59.024Z,0.00
2018-09-03T21:25:59.016Z,0.00
2018-09-03T21:26:59.004Z,0.00
2018-09-03T21:27:59.017Z,0.00
2018-09-03T21:28:58.993Z,0.00
2018-09-03T21:29:58.972Z,0.00
2018-09-03T21:30:58.960Z,0.00
2018-09-03T21:31:58.952Z,0.00
2018-09-03T21:32:58.955Z,0.00
2018-09-03T21:33:58.949Z,0.00
2018-09-03T21:34:58.947Z,0.00
2018-09-03T21:35:58.898Z,0.00
2018-09-03T21:36:58.901Z,0.00
2018-09-03T21:37:58.880Z,0.00
2018-09-03T21:38:58.926Z,0.00
2018-09-03T21:39:58.868Z,0.00
2018-09-03T21:40:58.850Z,0.00
2018-09-03T21:41:58.838Z,0.00
2018-09-03T21:42:58.841Z,0.00
2018-09-03T21:43:58.836Z,0.00
2018-09-03T21:44:58.824Z,0.00
2018-09-03T21:45:58.789Z,0.00
2018-09-03T21:46:58.779Z,0.00
2018-09-03T21:47:58.781Z,0.00
2018-09-03T21:48:58.791Z,0.00
2018-09-03T21:49:58.757Z,0.00
2018-09-03T21:52:07.969Z,0.00
2018-09-03T21:53:08.954Z,0.00
2018-09-03T21:54:08.939Z,0.00
2018-09-03T21:55:08.901Z,0.00
2018-09-03T21:56:08.894Z,0.00
2018-09-03T21:57:08.883Z,0.00
2018-09-03T21:58:08.872Z,0.00
2018-09-03T21:59:08.893Z,0.00
2018-09-03T22:00:08.863Z,0.00
2018-09-03T22:01:08.838Z,0.00
2018-09-03T22:02:08.848Z,0.00
2018-09-03T22:03:08.872Z,0.00
2018-09-03T22:04:08.829Z,0.00
2018-09-03T22:05:08.811Z,0.00
2018-09-03T22:06:08.781Z,0.00
2018-09-03T22:07:08.766Z,0.00
2018-09-03T22:08:08.846Z,0.00
2018-09-03T22:09:08.766Z,0.00
2018-09-03T22:10:08.753Z,0.00
2018-09-03T22:11:08.761Z,0.00
2018-09-03T22:12:08.729Z,0.00
2018-09-03T22:13:08.701Z,0.00
2018-09-03T22:14:08.714Z,0.00
2018-09-03T22:15:08.694Z,0.00
2018-09-03T22:16:08.677Z,0.00
2018-09-03T22:17:08.662Z,0.00
2018-09-03T22:18:08.652Z,0.00
2018-09-03T22:19:08.686Z,0.00
2018-09-03T22:20:08.642Z,0.00
2018-09-03T22:21:08.636Z,0.00
2018-09-03T22:22:08.615Z,0.00
2018-09-03T22:23:08.597Z,0.00
2018-09-03T22:24:08.606Z,0.00
2018-09-03T22:25:08.594Z,0.00
2018-09-03T22:26:08.571Z,0.00
2018-09-03T22:27:08.557Z,0.00
2018-09-03T22:28:08.554Z,0.00
2018-09-03T22:29:08.556Z,0.00
2018-09-03T22:30:08.541Z,0.00
2018-09-03T22:31:08.607Z,0.00
2018-09-03T22:32:08.493Z,0.00
2018-09-03T22:33:08.509Z,0.00
2018-09-03T22:34:08.511Z,0.00
2018-09-03T22:35:08.475Z,0.00
2018-09-03T22:36:08.450Z,0.00
2018-09-03T22:37:08.455Z,0.00
2018-09-03T22:38:08.437Z,0.00
2018-09-03T22:39:08.444Z,0.00
2018-09-03T22:40:08.424Z,0.00
2018-09-03T22:41:08.395Z,0.00
2018-09-03T22:42:08.389Z,0.00
2018-09-03T22:43:08.383Z,0.00
2018-09-03T22:44:08.403Z,0.00
2018-09-03T22:45:08.376Z,0.00
2018-09-03T22:46:08.349Z,0.00
2018-09-03T22:47:08.348Z,0.00
2018-09-03T22:48:08.336Z,0.00
2018-09-03T22:49:08.353Z,0.00
2018-09-03T22:50:08.312Z,0.00
2018-09-03T22:51:08.299Z,0.00
2018-09-03T22:52:08.286Z,0.00
2018-09-03T22:53:08.268Z,0.00
2018-09-03T22:54:08.287Z,0.00
2018-09-03T22:55:08.256Z,0.00
2018-09-03T22:56:08.241Z,0.00
2018-09-03T22:57:08.229Z,0.00
2018-09-03T22:58:08.223Z,0.00
2018-09-03T22:59:08.229Z,0.00
2018-09-03T23:00:08.209Z,0.00
2018-09-03T23:01:08.194Z,0.00
2018-09-03T23:02:08.181Z,0.00
2018-09-03T23:03:08.163Z,0.00
2018-09-03T23:04:08.219Z,0.00
2018-09-03T23:05:08.152Z,0.00
2018-09-03T23:06:08.134Z,0.00
2018-09-03T23:07:08.130Z,0.00
2018-09-03T23:08:08.111Z,0.00
2018-09-03T23:09:08.122Z,0.00
2018-09-03T23:10:08.094Z,0.00
2018-09-03T23:11:08.163Z,0.00
2018-09-03T23:12:08.076Z,0.00
2018-09-03T23:13:08.063Z,0.00
2018-09-03T23:14:08.074Z,0.00
2018-09-03T23:15:08.049Z,0.00
2018-09-03T23:16:08.029Z,0.00
2018-09-03T23:17:08.009Z,0.00
2018-09-03T23:18:08.008Z,0.00
2018-09-03T23:19:07.993Z,0.00
2018-09-03T23:20:08.017Z,0.00
2018-09-03T23:21:08.058Z,0.00
2018-09-03T23:22:07.965Z,0.00
2018-09-03T23:23:07.950Z,0.00
2018-09-03T23:24:07.958Z,0.00
2018-09-03T23:25:07.950Z,0.00
2018-09-03T23:26:07.923Z,0.00
2018-09-03T23:27:07.895Z,0.00
2018-09-03T23:28:07.885Z,0.00
2018-09-03T23:29:07.888Z,0.00
2018-09-03T23:30:07.893Z,0.00
2018-09-03T23:31:07.880Z,0.00
2018-09-03T23:32:07.855Z,0.00
2018-09-03T23:33:07.850Z,0.00
2018-09-03T23:34:07.832Z,0.00
2018-09-03T23:35:07.858Z,0.00
2018-09-03T23:36:07.814Z,0.00
2018-09-03T23:37:08.694Z,0.00
2018-09-03T23:38:07.780Z,0.00
2018-09-03T23:39:07.766Z,0.00
2018-09-03T23:40:07.793Z,0.00
2018-09-03T23:41:07.755Z,0.00
2018-09-03T23:42:07.747Z,0.00
2018-09-03T23:43:07.729Z,0.00
2018-09-03T23:44:07.734Z,0.00
2018-09-03T23:45:07.717Z,0.00
2018-09-03T23:46:07.708Z,0.00
2018-09-03T23:47:07.693Z,0.00
2018-09-03T23:48:07.672Z,0.00
2018-09-03T23:49:07.673Z,0.00
2018-09-03T23:50:07.685Z,0.00
2018-09-03T23:51:07.641Z,0.00
2018-09-03T23:53:16.860Z,0.00
2018-09-03T23:54:17.855Z,0.00
2018-09-03T23:55:17.874Z,0.00
2018-09-03T23:56:17.821Z,0.00
2018-09-03T23:57:17.815Z,0.00
2018-09-03T23:58:17.816Z,0.00
2018-09-03T23:59:17.792Z,0.00
